createdAt,value
2022-10-01T00:01:20.118Z,10.93
2022-10-01T00:04:24.271Z,10.98
2022-10-01T00:07:26.546Z,11.01
2022-10-01T00:10:30.393Z,10.97
2022-10-01T00:13:32.343Z,10.90
2022-10-01T00:16:34.729Z,10.83
2022-10-01T00:19:36.699Z,10.76
2022-10-01T00:22:39.219Z,10.71
2022-10-01T00:25:41.499Z,10.70
2022-10-01T00:28:45.790Z,10.83
2022-10-01T00:31:47.824Z,10.87
2022-10-01T00:34:49.794Z,10.91
2022-10-01T00:37:52.495Z,10.93
2022-10-01T00:40:54.280Z,10.91
2022-10-01T00:44:02.259Z,10.81
2022-10-01T00:47:27.160Z,10.75
2022-10-01T00:50:33.875Z,10.72
2022-10-01T00:53:35.707Z,10.69
2022-10-01T00:56:38.319Z,10.60
2022-10-01T00:59:40.186Z,10.51
2022-10-01T01:02:42.383Z,10.45
2022-10-01T01:05:44.265Z,10.49
2022-10-01T01:08:46.066Z,10.57
2022-10-01T01:12:26.522Z,10.54
2022-10-01T01:15:46.733Z,10.50
2022-10-01T01:19:13.869Z,10.44
2022-10-01T01:22:17.404Z,10.42
2022-10-01T01:25:29.253Z,10.46
2022-10-01T01:28:53.433Z,10.42
2022-10-01T01:31:58.981Z,10.44
2022-10-01T01:35:02.995Z,10.42
2022-10-01T01:38:11.578Z,10.49
2022-10-01T01:41:15.807Z,10.57
2022-10-01T01:44:30.212Z,10.59
2022-10-01T01:47:34.682Z,10.61
2022-10-01T01:50:42.647Z,10.66
2022-10-01T01:53:44.542Z,10.71
2022-10-01T01:56:46.834Z,10.72
2022-10-01T01:59:48.876Z,10.71
2022-10-01T02:02:52.840Z,10.71
2022-10-01T02:06:07.074Z,10.74
2022-10-01T02:09:11.706Z,10.77
2022-10-01T02:12:32.526Z,10.79
2022-10-01T02:16:04.670Z,10.85
2022-10-01T02:19:21.233Z,10.75
2022-10-01T02:22:41.557Z,10.32
2022-10-01T02:25:47.082Z,9.85
2022-10-01T02:28:51.653Z,9.59
2022-10-01T02:31:55.926Z,9.41
2022-10-01T02:34:59.109Z,9.40
2022-10-01T02:38:03.693Z,9.43
2022-10-01T02:41:08.894Z,9.49
2022-10-01T02:44:15.098Z,9.56
2022-10-01T02:47:33.501Z,9.58
2022-10-01T02:50:49.121Z,9.56
2022-10-01T02:53:55.704Z,9.51
2022-10-01T02:57:17.362Z,9.50
2022-10-01T03:00:22.190Z,9.49
2022-10-01T03:03:26.337Z,9.46
2022-10-01T03:06:28.543Z,9.48
2022-10-01T03:09:34.717Z,9.47
2022-10-01T03:12:36.859Z,9.48
2022-10-01T03:15:39.445Z,9.50
2022-10-01T03:18:41.372Z,9.51
2022-10-01T03:21:43.276Z,9.54
2022-10-01T03:24:45.213Z,9.59
2022-10-01T03:27:47.112Z,9.66
2022-10-01T03:30:48.860Z,9.73
2022-10-01T03:33:50.693Z,9.77
2022-10-01T03:36:53.093Z,9.82
2022-10-01T03:39:54.936Z,9.88
2022-10-01T03:42:56.801Z,9.95
2022-10-01T03:45:58.593Z,9.79
2022-10-01T03:49:01.304Z,9.80
2022-10-01T03:52:04.632Z,9.92
2022-10-01T03:55:07.289Z,9.94
2022-10-01T03:58:09.847Z,9.71
2022-10-01T04:01:12.161Z,9.80
2022-10-01T04:04:15.044Z,9.80
2022-10-01T04:07:16.799Z,9.60
2022-10-01T04:10:18.630Z,9.73
2022-10-01T04:13:20.552Z,9.69
2022-10-01T04:16:22.408Z,9.50
2022-10-01T04:19:24.191Z,9.69
2022-10-01T04:22:25.942Z,9.62
2022-10-01T04:25:28.550Z,9.37
2022-10-01T04:28:31.623Z,9.29
2022-10-01T04:31:35.241Z,9.40
2022-10-01T04:34:52.930Z,9.45
2022-10-01T04:37:59.308Z,9.42
2022-10-01T04:41:01.422Z,9.51
2022-10-01T04:44:03.306Z,9.56
2022-10-01T04:47:05.763Z,9.46
2022-10-01T04:50:07.857Z,9.40
2022-10-01T04:53:09.643Z,9.40
2022-10-01T04:56:11.372Z,9.40
2022-10-01T04:59:13.163Z,9.43
2022-10-01T05:02:15.021Z,9.42
2022-10-01T05:05:18.443Z,9.37
2022-10-01T05:08:21.225Z,9.38
2022-10-01T05:11:22.983Z,9.38
2022-10-01T05:14:25.058Z,9.40
2022-10-01T05:17:26.772Z,9.41
2022-10-01T05:20:29.219Z,9.43
2022-10-01T05:23:31.403Z,9.49
2022-10-01T05:26:33.153Z,9.54
2022-10-01T05:29:35.459Z,9.61
2022-10-01T05:32:37.962Z,9.65
2022-10-01T05:35:41.169Z,9.67
2022-10-01T05:38:43.414Z,9.69
2022-10-01T05:41:45.345Z,9.68
2022-10-01T05:44:47.176Z,9.83
2022-10-01T05:47:55.753Z,10.00
2022-10-01T05:50:58.978Z,10.13
2022-10-01T05:54:04.620Z,10.24
2022-10-01T05:57:08.097Z,10.34
2022-10-01T06:00:10.591Z,10.42
2022-10-01T06:03:13.208Z,10.48
2022-10-01T06:06:15.258Z,10.53
2022-10-01T06:09:17.113Z,10.55
2022-10-01T06:12:20.025Z,10.61
2022-10-01T06:15:21.912Z,10.67
2022-10-01T06:18:23.759Z,10.72
2022-10-01T06:21:25.921Z,10.80
2022-10-01T06:24:27.664Z,10.85
2022-10-01T06:27:29.477Z,10.89
2022-10-01T06:30:33.190Z,10.94
2022-10-01T06:33:35.558Z,10.98
2022-10-01T06:36:37.261Z,11.03
2022-10-01T06:39:39.109Z,11.07
2022-10-01T06:42:47.556Z,11.12
2022-10-01T06:45:49.502Z,11.16
2022-10-01T06:48:51.282Z,11.19
2022-10-01T06:52:11.819Z,11.25
2022-10-01T06:55:16.620Z,11.32
2022-10-01T06:58:22.684Z,11.38
2022-10-01T07:01:24.562Z,11.49
2022-10-01T07:04:26.425Z,11.59
2022-10-01T07:07:31.463Z,11.71
2022-10-01T07:10:34.962Z,11.85
2022-10-01T07:13:36.694Z,11.89
2022-10-01T07:16:39.517Z,11.91
2022-10-01T07:19:41.434Z,11.99
2022-10-01T07:22:44.485Z,12.06
2022-10-01T07:25:46.858Z,12.11
2022-10-01T07:28:48.576Z,12.25
2022-10-01T07:32:00.933Z,12.33
2022-10-01T07:35:02.943Z,12.36
2022-10-01T07:38:06.645Z,12.39
2022-10-01T07:41:09.202Z,12.49
2022-10-01T07:44:13.843Z,12.57
2022-10-01T07:47:15.649Z,12.64
2022-10-01T07:50:17.372Z,12.66
2022-10-01T07:53:19.749Z,12.71
2022-10-01T07:56:22.226Z,12.94
2022-10-01T07:59:24.638Z,13.27
2022-10-01T08:02:26.585Z,13.37
2022-10-01T08:05:32.063Z,13.39
2022-10-01T08:08:33.949Z,13.38
2022-10-01T08:11:38.166Z,13.32
2022-10-01T08:14:40.005Z,13.26
2022-10-01T08:17:42.506Z,13.22
2022-10-01T08:20:44.488Z,13.23
2022-10-01T08:23:46.485Z,13.28
2022-10-01T08:26:53.642Z,13.32
2022-10-01T08:29:55.699Z,13.35
2022-10-01T08:32:58.799Z,13.39
2022-10-01T08:36:05.066Z,13.36
2022-10-01T08:39:07.309Z,13.41
2022-10-01T08:42:26.191Z,13.48
2022-10-01T08:45:49.560Z,13.54
2022-10-01T08:49:06.717Z,13.50
2022-10-01T08:52:29.998Z,13.45
2022-10-01T08:55:36.645Z,13.36
2022-10-01T08:58:44.734Z,13.38
2022-10-01T09:01:46.538Z,13.35
2022-10-01T09:04:52.006Z,13.38
2022-10-01T09:08:16.319Z,13.37
2022-10-01T09:11:38.882Z,13.40
2022-10-01T09:14:49.795Z,13.44
2022-10-01T09:18:12.901Z,13.49
2022-10-01T09:21:54.624Z,13.52
2022-10-01T09:25:14.874Z,13.50
2022-10-01T09:28:30.254Z,13.53
2022-10-01T09:31:38.387Z,13.51
2022-10-01T09:34:42.999Z,13.53
2022-10-01T09:37:56.121Z,13.55
2022-10-01T09:40:59.155Z,13.57
2022-10-01T09:44:01.937Z,13.64
2022-10-01T09:47:03.873Z,13.77
2022-10-01T09:50:06.718Z,13.87
2022-10-01T09:53:18.783Z,13.90
2022-10-01T09:57:10.171Z,13.98
2022-10-01T10:00:20.400Z,14.05
2022-10-01T10:03:30.533Z,14.08
2022-10-01T10:06:33.064Z,14.13
2022-10-01T10:09:35.970Z,14.15
2022-10-01T10:12:37.827Z,14.14
2022-10-01T10:15:58.324Z,14.15
2022-10-01T10:19:04.561Z,14.18
2022-10-01T10:22:12.267Z,14.24
2022-10-01T10:25:21.237Z,14.28
2022-10-01T10:28:24.504Z,14.29
2022-10-01T10:31:28.758Z,14.29
2022-10-01T10:34:40.657Z,14.28
2022-10-01T10:37:48.598Z,14.25
2022-10-01T10:40:51.274Z,14.22
2022-10-01T10:43:59.285Z,14.20
2022-10-01T10:47:03.442Z,14.20
2022-10-01T10:50:06.652Z,14.20
2022-10-01T10:53:22.641Z,14.19
2022-10-01T10:56:25.637Z,14.22
2022-10-01T10:59:29.840Z,14.25
2022-10-01T11:02:33.337Z,14.26
2022-10-01T11:05:41.765Z,14.30
2022-10-01T11:08:44.186Z,14.36
2022-10-01T11:12:01.963Z,14.41
2022-10-01T11:15:16.664Z,14.47
2022-10-01T11:18:41.661Z,14.54
2022-10-01T11:22:02.360Z,14.41
2022-10-01T11:25:22.813Z,14.46
2022-10-01T11:28:46.292Z,14.62
2022-10-01T11:32:03.222Z,14.81
2022-10-01T11:35:18.759Z,14.87
2022-10-01T11:38:36.389Z,14.98
2022-10-01T11:41:45.055Z,15.04
2022-10-01T11:45:00.524Z,15.16
2022-10-01T11:48:33.047Z,15.03
2022-10-01T11:51:39.839Z,14.96
2022-10-01T11:55:31.482Z,14.85
2022-10-01T11:58:52.877Z,14.70
2022-10-01T12:02:15.419Z,14.66
2022-10-01T12:05:20.621Z,14.63
2022-10-01T12:08:27.302Z,14.56
2022-10-01T12:11:35.462Z,14.53
2022-10-01T12:14:49.341Z,14.56
2022-10-01T12:18:13.344Z,14.64
2022-10-01T12:21:28.011Z,14.63
2022-10-01T12:24:33.360Z,14.52
2022-10-01T12:28:02.925Z,14.43
2022-10-01T12:31:33.426Z,14.43
2022-10-01T12:34:54.244Z,14.50
2022-10-01T12:38:24.261Z,14.62
2022-10-01T12:41:36.070Z,14.81
2022-10-01T12:44:45.918Z,14.92
2022-10-01T12:48:03.761Z,14.91
2022-10-01T12:51:11.319Z,14.91
2022-10-01T12:54:39.154Z,14.84
2022-10-01T12:57:51.976Z,14.81
2022-10-01T13:00:57.288Z,14.84
2022-10-01T13:04:07.975Z,14.82
2022-10-01T13:07:31.775Z,14.78
2022-10-01T13:10:36.207Z,14.76
2022-10-01T13:13:38.819Z,14.70
2022-10-01T13:16:56.701Z,14.59
2022-10-01T13:20:06.431Z,14.54
2022-10-01T13:23:39.525Z,14.48
2022-10-01T13:27:13.219Z,14.39
2022-10-01T13:30:26.128Z,14.26
2022-10-01T13:33:32.284Z,14.29
2022-10-01T13:36:36.733Z,14.48
2022-10-01T13:39:42.283Z,14.62
2022-10-01T13:42:46.312Z,14.69
2022-10-01T13:45:50.755Z,14.65
2022-10-01T13:48:52.717Z,14.57
2022-10-01T13:51:54.976Z,14.46
2022-10-01T13:54:58.002Z,14.37
2022-10-01T13:58:19.507Z,14.28
2022-10-01T14:01:24.291Z,14.25
2022-10-01T14:04:40.898Z,14.20
2022-10-01T14:07:43.983Z,14.12
2022-10-01T14:11:10.145Z,14.15
2022-10-01T14:14:51.651Z,14.18
2022-10-01T14:17:53.413Z,14.20
2022-10-01T14:21:21.005Z,14.15
2022-10-01T14:24:33.729Z,14.13
2022-10-01T14:27:54.429Z,14.09
2022-10-01T14:31:07.643Z,14.02
2022-10-01T14:34:33.876Z,13.99
2022-10-01T14:37:39.467Z,13.94
2022-10-01T14:40:43.506Z,13.88
2022-10-01T14:43:45.511Z,13.80
2022-10-01T14:46:47.361Z,13.78
2022-10-01T14:49:50.099Z,13.76
2022-10-01T14:52:53.285Z,13.71
2022-10-01T14:55:57.406Z,13.67
2022-10-01T14:59:03.449Z,13.66
2022-10-01T15:02:18.517Z,13.65
2022-10-01T15:05:23.144Z,13.64
2022-10-01T15:08:49.670Z,13.63
2022-10-01T15:11:52.002Z,13.60
2022-10-01T15:14:54.640Z,13.59
2022-10-01T15:17:57.170Z,13.52
2022-10-01T15:21:02.761Z,13.37
2022-10-01T15:24:06.631Z,13.23
2022-10-01T15:27:09.972Z,13.19
2022-10-01T15:30:15.803Z,13.20
2022-10-01T15:33:33.341Z,13.25
2022-10-01T15:36:36.029Z,13.21
2022-10-01T15:39:40.033Z,13.12
2022-10-01T15:43:12.225Z,12.99
2022-10-01T15:46:29.386Z,12.94
2022-10-01T15:49:31.293Z,12.92
2022-10-01T15:52:53.960Z,12.87
2022-10-01T15:55:58.547Z,12.85
2022-10-01T15:59:29.777Z,12.81
2022-10-01T16:02:32.081Z,12.87
2022-10-01T16:05:44.466Z,12.90
2022-10-01T16:09:03.249Z,12.86
2022-10-01T16:12:20.394Z,12.90
2022-10-01T16:15:30.142Z,12.90
2022-10-01T16:18:34.786Z,12.84
2022-10-01T16:21:40.539Z,12.86
2022-10-01T16:24:54.887Z,12.92
2022-10-01T16:28:03.962Z,12.84
2022-10-01T16:31:06.073Z,12.75
2022-10-01T16:34:12.499Z,12.74
2022-10-01T16:37:14.243Z,12.79
2022-10-01T16:40:17.652Z,12.78
2022-10-01T16:43:24.508Z,12.77
2022-10-01T16:46:26.465Z,12.85
2022-10-01T16:49:28.346Z,12.85
2022-10-01T16:52:30.177Z,12.84
2022-10-01T16:55:36.013Z,12.85
2022-10-01T16:58:39.010Z,12.75
2022-10-01T17:01:40.754Z,12.71
2022-10-01T17:04:42.570Z,12.72
2022-10-01T17:07:45.307Z,12.70
2022-10-01T17:10:59.293Z,12.63
2022-10-01T17:14:08.282Z,12.62
2022-10-01T17:17:10.201Z,12.56
2022-10-01T17:20:12.362Z,12.51
2022-10-01T17:23:15.986Z,12.46
2022-10-01T17:26:17.819Z,12.30
2022-10-01T17:29:19.591Z,12.21
2022-10-01T17:32:21.568Z,12.19
2022-10-01T17:35:23.474Z,12.19
2022-10-01T17:38:25.354Z,12.18
2022-10-01T17:41:27.498Z,12.22
2022-10-01T17:44:29.455Z,12.17
2022-10-01T17:47:31.449Z,12.18
2022-10-01T17:50:33.454Z,12.19
2022-10-01T17:53:42.138Z,12.15
2022-10-01T17:56:44.911Z,12.18
2022-10-01T17:59:47.782Z,12.15
2022-10-01T18:02:49.635Z,12.17
2022-10-01T18:05:54.521Z,12.21
2022-10-01T18:08:56.961Z,12.17
2022-10-01T18:11:59.670Z,12.17
2022-10-01T18:15:02.158Z,12.14
2022-10-01T18:21:25.901Z,12.13
2022-10-01T18:24:28.857Z,12.09
2022-10-01T18:27:31.102Z,12.06
2022-10-01T18:30:33.045Z,12.05
2022-10-01T18:33:34.945Z,12.00
2022-10-01T18:36:36.972Z,11.99
2022-10-01T18:39:49.974Z,11.94
2022-10-01T18:43:07.303Z,11.96
2022-10-01T18:46:15.005Z,11.95
2022-10-01T18:49:29.079Z,11.91
2022-10-01T18:52:35.980Z,11.92
2022-10-01T18:56:22.312Z,11.94
2022-10-01T19:00:02.513Z,11.92
2022-10-01T19:03:16.701Z,11.84
2022-10-01T19:06:21.286Z,11.78
2022-10-01T19:09:39.631Z,11.70
2022-10-01T19:12:53.047Z,11.64
2022-10-01T19:16:22.987Z,11.60
2022-10-01T19:19:27.896Z,11.52
2022-10-01T19:22:51.858Z,11.42
2022-10-01T19:26:11.076Z,11.37
2022-10-01T19:29:22.537Z,11.37
2022-10-01T19:32:25.186Z,11.33
2022-10-01T19:35:48.659Z,11.31
2022-10-01T19:38:51.481Z,11.29
2022-10-01T19:42:23.975Z,11.38
2022-10-01T19:45:46.723Z,11.53
2022-10-01T19:49:11.346Z,11.68
2022-10-01T19:52:18.256Z,11.70
2022-10-01T19:55:21.479Z,11.72
2022-10-01T19:58:24.056Z,11.63
2022-10-01T20:01:39.467Z,11.50
2022-10-01T20:04:51.824Z,11.32
2022-10-01T20:08:01.583Z,11.14
2022-10-01T20:11:13.694Z,11.02
2022-10-01T20:14:40.263Z,10.90
2022-10-01T20:17:55.771Z,10.75
2022-10-01T20:21:06.867Z,10.66
2022-10-01T20:24:29.035Z,10.58
2022-10-01T20:27:55.652Z,10.46
2022-10-01T20:31:16.458Z,10.35
2022-10-01T20:34:50.952Z,10.28
2022-10-01T20:38:07.102Z,10.36
2022-10-01T20:41:18.194Z,10.35
2022-10-01T20:44:38.396Z,10.34
2022-10-01T20:47:47.827Z,10.31
2022-10-01T20:50:54.115Z,10.30
2022-10-01T20:54:00.297Z,10.28
2022-10-01T20:57:20.630Z,10.28
2022-10-01T21:00:25.020Z,10.28
2022-10-01T21:03:38.515Z,10.27
2022-10-01T21:06:44.494Z,10.27
2022-10-01T21:09:50.410Z,10.26
2022-10-01T21:13:08.227Z,10.24
2022-10-01T21:16:32.916Z,10.21
2022-10-01T21:20:21.117Z,10.20
2022-10-01T21:23:36.014Z,10.18
2022-10-01T21:27:04.698Z,10.15
2022-10-01T21:30:20.392Z,10.14
2022-10-01T21:33:30.342Z,10.12
2022-10-01T21:36:50.432Z,10.11
2022-10-01T21:40:19.770Z,10.11
2022-10-01T21:43:40.326Z,10.11
2022-10-01T21:46:42.575Z,10.11
2022-10-01T21:49:59.322Z,10.13
2022-10-01T21:53:25.491Z,10.12
2022-10-01T21:56:30.539Z,10.13
2022-10-01T21:59:49.936Z,10.13
2022-10-01T22:03:10.659Z,10.15
2022-10-01T22:06:18.246Z,10.17
2022-10-01T22:09:46.783Z,10.18
2022-10-01T22:12:50.311Z,10.18
2022-10-01T22:15:59.389Z,10.19
2022-10-01T22:19:07.099Z,10.20
2022-10-01T22:22:15.223Z,10.20
2022-10-01T22:25:17.116Z,10.21
2022-10-01T22:28:23.036Z,10.21
2022-10-01T22:31:28.214Z,10.23
2022-10-01T22:34:34.694Z,10.23
2022-10-01T22:37:44.390Z,10.23
2022-10-01T22:40:58.836Z,10.23
2022-10-01T22:44:05.037Z,10.21
2022-10-01T22:47:26.126Z,10.20
2022-10-01T22:51:13.209Z,10.21
2022-10-01T22:54:35.306Z,10.21
2022-10-01T22:57:52.733Z,10.22
2022-10-01T23:01:06.129Z,10.21
2022-10-01T23:04:36.514Z,10.19
2022-10-01T23:08:04.098Z,10.19
2022-10-01T23:11:20.326Z,10.22
2022-10-01T23:14:40.258Z,10.24
2022-10-01T23:17:51.298Z,10.25
2022-10-01T23:21:17.344Z,10.27
2022-10-01T23:24:31.899Z,10.27
2022-10-01T23:27:55.027Z,10.27
2022-10-01T23:31:27.693Z,10.27
2022-10-01T23:34:53.980Z,10.27
2022-10-01T23:38:20.777Z,10.28
2022-10-01T23:41:33.471Z,10.29
2022-10-01T23:44:52.172Z,10.29
2022-10-01T23:48:14.197Z,10.29
2022-10-01T23:51:25.905Z,10.29
2022-10-01T23:54:37.324Z,10.29
2022-10-01T23:57:40.731Z,10.29
